Terminal Aerodrome Forecast
Issued by NWS Albany, NY

Home | Current Version | Previous Version | Text Only | Print | Product List | Glossary On
Versions: 1 2 3 4 5 6 7 8 9 10 11 12 13 14 15 16 17 18 19 20 21 22 23
000
FTUS41 KALY 280539
TAFGFL
TAF
KGFL 280539Z 2806/2906 00000KT 4SM BR SCT003
      TEMPO 2806/2808 2SM BR BKN003
     FM280800 00000KT 3SM BR SCT003
      TEMPO 2808/2811 1SM BR BKN003
     FM281200 VRB03KT P6SM SCT050
     FM290100 00000KT P6SM SKC=

USA.gov is the U.S. government's official web portal to all federal, state and local government web resources and services.